Time;durP1;ratioP1;P1;durP2;ratioP2;P2;SDS_P1;SDS_P2;PMS_P1;PMS_P2;Temp;Humidity;BMP_temperature;BMP_pressure;BME280_temperature;BME280_humidity;BME280_pressure;Samples;Min_cycle;Max_cycle;Signal;HPM_P1;HPM_P2
2023/03/19 00:01:17;;;;;;;40.20;17.63;;;;;;;;;;5016889;28;20045;-80
2023/03/19 00:04:03;;;;;;;41.92;19.25;;;;;;;;;;5017752;28;20045;-79
2023/03/19 00:06:49;;;;;;;42.45;20.20;;;;;;;;;;5035698;28;20042;-80
2023/03/19 00:09:34;;;;;;;40.95;18.80;;;;;;;;;;5036386;28;20037;-80
2023/03/19 00:12:20;;;;;;;19.63;10.52;;;;;;;;;;5035999;28;20034;-80
2023/03/19 00:15:07;;;;;;;20.92;10.95;;;;;;;;;;5036719;28;20046;-80
2023/03/19 00:17:53;;;;;;;19.00;8.90;;;;;;;;;;5041780;28;20049;-79
2023/03/19 00:20:38;;;;;;;20.95;10.25;;;;;;;;;;5036305;28;20037;-80
2023/03/19 00:23:24;;;;;;;16.63;8.07;;;;;;;;;;5035944;28;20050;-80
2023/03/19 00:26:08;;;;;;;11.30;6.20;;;;;;;;;;5035276;28;20045;-79
2023/03/19 00:28:54;;;;;;;7.78;4.90;;;;;;;;;;5034994;28;20049;-79
2023/03/19 00:31:39;;;;;;;12.10;6.30;;;;;;;;;;5041490;28;20053;-80
2023/03/19 00:34:24;;;;;;;13.88;6.53;;;;;;;;;;5036109;28;20049;-80
2023/03/19 00:37:11;;;;;;;20.08;9.63;;;;;;;;;;5035787;28;20046;-80
2023/03/19 00:39:57;;;;;;;34.25;16.42;;;;;;;;;;5035948;28;20042;-80
2023/03/19 00:42:43;;;;;;;22.48;11.65;;;;;;;;;;5036001;28;20053;-79
2023/03/19 00:45:29;;;;;;;23.95;11.98;;;;;;;;;;5027088;28;20485;-79
2023/03/19 00:48:14;;;;;;;32.67;16.13;;;;;;;;;;5035987;28;20049;-80
2023/03/19 00:51:08;;;;;;;33.90;14.98;;;;;;;;;;5035364;28;20404;-79
2023/03/19 00:53:56;;;;;;;22.92;11.23;;;;;;;;;;5028356;28;20367;-80
2023/03/19 00:56:40;;;;;;;18.77;9.90;;;;;;;;;;5027322;28;20049;-79
2023/03/19 00:59:28;;;;;;;23.85;11.43;;;;;;;;;;5034330;28;20474;-79
2023/03/19 01:02:16;;;;;;;18.33;10.60;;;;;;;;;;5035523;28;20045;-79
2023/03/19 01:05:01;;;;;;;15.63;9.32;;;;;;;;;;5034375;28;20053;-80
2023/03/19 01:07:50;;;;;;;23.88;10.10;;;;;;;;;;5034331;28;20045;-80
2023/03/19 01:10:35;;;;;;;22.08;11.05;;;;;;;;;;5041025;28;20041;-79
2023/03/19 01:13:23;;;;;;;25.83;10.50;;;;;;;;;;5040494;28;20486;-79
2023/03/19 01:16:09;;;;;;;20.23;9.90;;;;;;;;;;5040953;28;20049;-80
2023/03/19 01:18:55;;;;;;;20.02;9.40;;;;;;;;;;5034974;28;20041;-79
2023/03/19 01:21:45;;;;;;;16.42;9.00;;;;;;;;;;5035185;28;20045;-79
2023/03/19 01:24:32;;;;;;;20.80;10.10;;;;;;;;;;5040130;28;20053;-79
2023/03/19 01:27:19;;;;;;;18.83;9.68;;;;;;;;;;5040477;28;20053;-80
2023/03/19 01:30:07;;;;;;;19.60;9.73;;;;;;;;;;5026958;28;20065;-79
2023/03/19 01:33:15;;;;;;;20.83;9.95;;;;;;;;;;5034381;28;20042;-80
2023/03/19 01:36:15;;;;;;;25.88;11.57;;;;;;;;;;5034955;28;20499;-80
2023/03/19 01:39:16;;;;;;;15.02;8.20;;;;;;;;;;5040503;28;20470;-80
2023/03/19 01:42:03;;;;;;;15.60;7.72;;;;;;;;;;5040220;28;20054;-80
2023/03/19 01:45:02;;;;;;;17.20;8.52;;;;;;;;;;5040412;28;20045;-79
2023/03/19 01:48:04;;;;;;;13.98;7.07;;;;;;;;;;5040104;28;20053;-80
2023/03/19 01:51:08;;;;;;;13.90;7.32;;;;;;;;;;5040320;28;20046;-79
2023/03/19 01:54:17;;;;;;;14.68;7.60;;;;;;;;;;5032065;28;20038;-80
2023/03/19 01:57:12;;;;;;;16.58;7.65;;;;;;;;;;5040055;28;20045;-80
2023/03/19 02:00:20;;;;;;;16.60;8.30;;;;;;;;;;5027183;28;20042;-80
2023/03/19 02:03:06;;;;;;;22.08;11.77;;;;;;;;;;5032310;28;20049;-80
2023/03/19 02:06:03;;;;;;;24.67;11.88;;;;;;;;;;5006388;28;20053;-79
2023/03/19 02:08:50;;;;;;;25.48;12.07;;;;;;;;;;4992763;28;20049;-80
2023/03/19 02:11:37;;;;;;;21.23;11.07;;;;;;;;;;5014836;28;20053;-79
2023/03/19 02:14:23;;;;;;;15.35;8.93;;;;;;;;;;5006604;28;20046;-80
2023/03/19 02:17:10;;;;;;;21.33;10.05;;;;;;;;;;5006112;28;20050;-79
2023/03/19 02:20:26;;;;;;;27.00;11.75;;;;;;;;;;5006550;28;20049;-79
2023/03/19 02:23:29;;;;;;;40.55;13.25;;;;;;;;;;4999063;28;20050;-80
2023/03/19 02:26:20;;;;;;;49.10;16.77;;;;;;;;;;5006273;28;20046;-79
2023/03/19 02:29:08;;;;;;;23.70;10.85;;;;;;;;;;5014114;28;20510;-80
2023/03/19 02:31:55;;;;;;;19.27;9.25;;;;;;;;;;4992576;28;20049;-79
2023/03/19 02:34:42;;;;;;;21.00;9.90;;;;;;;;;;5014174;28;20049;-79
2023/03/19 02:37:29;;;;;;;17.85;9.52;;;;;;;;;;5005339;28;20049;-80
2023/03/19 02:40:23;;;;;;;19.73;9.73;;;;;;;;;;5006246;28;20506;-79
2023/03/19 02:43:08;;;;;;;20.17;9.63;;;;;;;;;;5013918;28;20402;-79
2023/03/19 02:45:54;;;;;;;23.98;10.75;;;;;;;;;;5005752;28;20046;-79
2023/03/19 02:48:40;;;;;;;23.48;11.38;;;;;;;;;;4992600;28;20478;-79
2023/03/19 02:51:26;;;;;;;23.00;10.25;;;;;;;;;;5005511;28;20398;-79
2023/03/19 02:54:11;;;;;;;21.73;11.70;;;;;;;;;;5005793;28;20495;-79
2023/03/19 02:56:57;;;;;;;23.50;11.02;;;;;;;;;;5005407;28;20054;-79
2023/03/19 02:59:42;;;;;;;26.85;12.80;;;;;;;;;;5005525;28;20041;-78
2023/03/19 03:02:28;;;;;;;33.97;15.45;;;;;;;;;;5005871;28;20037;-79
2023/03/19 03:05:14;;;;;;;36.22;14.95;;;;;;;;;;5029826;28;20049;-79
2023/03/19 03:07:59;;;;;;;35.70;16.90;;;;;;;;;;5036276;28;20049;-79
2023/03/19 03:10:46;;;;;;;38.53;16.60;;;;;;;;;;5035763;28;20041;-79
2023/03/19 03:13:31;;;;;;;31.70;15.40;;;;;;;;;;5033596;28;20049;-79
2023/03/19 03:16:17;;;;;;;38.55;15.80;;;;;;;;;;5025603;28;20045;-79
2023/03/19 03:19:03;;;;;;;31.58;16.25;;;;;;;;;;5024727;28;20057;-80
2023/03/19 03:21:49;;;;;;;40.40;17.50;;;;;;;;;;5038868;28;20045;-79
2023/03/19 03:24:34;;;;;;;34.85;15.73;;;;;;;;;;5033152;28;20373;-80
2023/03/19 03:27:19;;;;;;;40.03;17.13;;;;;;;;;;5033299;28;20045;-79
2023/03/19 03:30:07;;;;;;;70.13;25.38;;;;;;;;;;5033432;28;20049;-79
2023/03/19 03:32:53;;;;;;;69.60;23.08;;;;;;;;;;5036570;28;20050;-80
2023/03/19 03:35:39;;;;;;;32.03;13.80;;;;;;;;;;5020392;28;20049;-79
2023/03/19 03:38:24;;;;;;;26.58;13.68;;;;;;;;;;5034772;28;20037;-79
2023/03/19 03:41:10;;;;;;;31.40;13.85;;;;;;;;;;5032937;28;20038;-79
2023/03/19 03:43:56;;;;;;;27.13;12.73;;;;;;;;;;5019076;28;20049;-79
2023/03/19 03:46:42;;;;;;;23.88;12.63;;;;;;;;;;5023444;28;20482;-80
2023/03/19 03:49:27;;;;;;;23.83;11.55;;;;;;;;;;5035689;28;20050;-79
2023/03/19 03:52:12;;;;;;;37.72;18.40;;;;;;;;;;5029257;28;20049;-79
2023/03/19 03:54:59;;;;;;;40.25;20.73;;;;;;;;;;5028855;28;20049;-80
2023/03/19 03:57:45;;;;;;;43.17;19.15;;;;;;;;;;5042267;28;20406;-79
2023/03/19 04:00:30;;;;;;;38.40;18.60;;;;;;;;;;5036460;28;20045;-79
2023/03/19 04:03:16;;;;;;;42.47;18.33;;;;;;;;;;5036617;28;20479;-80
2023/03/19 04:06:01;;;;;;;48.38;20.92;;;;;;;;;;5028120;28;20045;-79
2023/03/19 04:08:47;;;;;;;39.58;19.77;;;;;;;;;;5021041;28;20054;-79
2023/03/19 04:11:34;;;;;;;40.08;20.25;;;;;;;;;;5006876;28;20045;-79
2023/03/19 04:14:19;;;;;;;36.05;18.23;;;;;;;;;;5022201;28;20398;-79
2023/03/19 04:17:05;;;;;;;43.20;20.45;;;;;;;;;;5008362;28;20045;-80
2023/03/19 04:19:50;;;;;;;44.72;19.98;;;;;;;;;;5007132;28;20046;-80
2023/03/19 04:22:36;;;;;;;41.20;19.10;;;;;;;;;;5008194;28;20057;-80
2023/03/19 04:25:21;;;;;;;39.17;18.02;;;;;;;;;;5022173;28;20054;-80
2023/03/19 04:28:07;;;;;;;37.30;18.05;;;;;;;;;;5007894;28;20073;-80
2023/03/19 04:31:01;;;;;;;37.63;17.83;;;;;;;;;;5022141;28;20049;-79
2023/03/19 04:33:48;;;;;;;30.88;14.57;;;;;;;;;;5008393;28;20050;-80
2023/03/19 04:36:33;;;;;;;21.83;11.68;;;;;;;;;;5016053;28;20045;-79
2023/03/19 04:39:18;;;;;;;20.30;11.38;;;;;;;;;;4994584;28;20058;-79
2023/03/19 04:42:04;;;;;;;20.65;10.80;;;;;;;;;;5021758;28;20046;-80
2023/03/19 04:44:53;;;;;;;23.13;11.70;;;;;;;;;;5021649;28;20478;-79
2023/03/19 04:47:39;;;;;;;21.35;11.60;;;;;;;;;;5007968;28;20050;-80
2023/03/19 04:50:24;;;;;;;32.25;14.70;;;;;;;;;;5007397;28;20050;-79
2023/03/19 04:53:12;;;;;;;35.55;16.65;;;;;;;;;;5007931;28;20050;-79
2023/03/19 04:55:58;;;;;;;28.30;14.13;;;;;;;;;;5021536;28;20049;-79
2023/03/19 04:58:42;;;;;;;32.30;14.05;;;;;;;;;;5020032;28;20050;-80
2023/03/19 05:01:28;;;;;;;26.20;11.90;;;;;;;;;;5007713;28;20045;-79
2023/03/19 05:04:18;;;;;;;18.42;9.77;;;;;;;;;;5008067;28;20058;-79
2023/03/19 05:07:06;;;;;;;21.38;10.25;;;;;;;;;;5027768;28;20046;-79
2023/03/19 05:09:51;;;;;;;31.80;10.63;;;;;;;;;;5039481;28;20046;-79
2023/03/19 05:12:39;;;;;;;27.13;12.27;;;;;;;;;;5038856;28;20490;-79
2023/03/19 05:15:25;;;;;;;19.98;10.95;;;;;;;;;;5026599;28;20046;-79
2023/03/19 05:18:24;;;;;;;32.70;16.00;;;;;;;;;;5040406;28;20054;-79
2023/03/19 05:21:11;;;;;;;40.05;15.77;;;;;;;;;;5026293;28;20413;-79
2023/03/19 05:23:58;;;;;;;22.00;11.00;;;;;;;;;;5021468;28;20046;-79
2023/03/19 05:26:46;;;;;;;22.35;10.60;;;;;;;;;;5021576;28;20049;-79
2023/03/19 05:29:55;;;;;;;21.45;10.43;;;;;;;;;;5020924;28;20057;-79
2023/03/19 05:32:57;;;;;;;23.55;11.68;;;;;;;;;;5021136;28;20399;-79
2023/03/19 05:35:50;;;;;;;33.42;11.88;;;;;;;;;;5020611;28;20042;-79
2023/03/19 05:38:59;;;;;;;45.50;15.77;;;;;;;;;;5014264;28;20042;-79
2023/03/19 05:41:51;;;;;;;36.45;17.42;;;;;;;;;;5021309;28;20042;-79
2023/03/19 05:44:41;;;;;;;40.05;18.60;;;;;;;;;;5020471;28;20041;-79
2023/03/19 05:47:36;;;;;;;46.58;23.00;;;;;;;;;;5020892;28;20050;-79
2023/03/19 05:50:20;;;;;;;26.55;15.60;;;;;;;;;;5006765;28;20050;-79
2023/03/19 05:53:45;;;;;;;52.78;29.05;;;;;;;;;;5013200;28;20121;-80
2023/03/19 05:56:46;;;;;;;47.70;24.65;;;;;;;;;;5008712;28;20045;-79
2023/03/19 05:59:51;;;;;;;48.65;23.02;;;;;;;;;;5014603;28;20041;-80
2023/03/19 06:02:51;;;;;;;44.80;19.77;;;;;;;;;;5032517;28;20041;-79
2023/03/19 06:06:02;;;;;;;38.20;19.83;;;;;;;;;;5020733;28;20038;-79
2023/03/19 06:08:53;;;;;;;39.47;18.45;;;;;;;;;;5019722;28;20433;-80
2023/03/19 06:11:51;;;;;;;65.20;22.80;;;;;;;;;;5020646;28;20475;-79
2023/03/19 06:15:06;;;;;;;32.20;15.82;;;;;;;;;;5015535;28;20049;-79
2023/03/19 06:18:03;;;;;;;29.42;15.43;;;;;;;;;;5014997;28;20046;-80
2023/03/19 06:20:49;;;;;;;29.83;15.45;;;;;;;;;;5019759;28;20050;-80
2023/03/19 06:23:35;;;;;;;33.17;17.48;;;;;;;;;;5020030;28;20049;-80
2023/03/19 06:26:23;;;;;;;34.35;17.48;;;;;;;;;;5019935;28;20046;-80
2023/03/19 06:29:15;;;;;;;34.03;17.60;;;;;;;;;;5020095;28;20069;-79
2023/03/19 06:32:03;;;;;;;41.63;18.38;;;;;;;;;;5019841;28;20053;-80
2023/03/19 06:34:58;;;;;;;34.95;16.95;;;;;;;;;;5019281;28;20045;-80
2023/03/19 06:37:44;;;;;;;29.15;16.42;;;;;;;;;;5019904;28;20053;-79
2023/03/19 06:40:29;;;;;;;34.60;17.00;;;;;;;;;;5019774;28;20061;-80
2023/03/19 06:43:14;;;;;;;41.50;18.20;;;;;;;;;;4999549;28;20053;-80
2023/03/19 06:46:00;;;;;;;38.53;20.45;;;;;;;;;;5013849;28;20054;-79
2023/03/19 06:48:45;;;;;;;41.30;19.35;;;;;;;;;;5019560;28;20061;-81
2023/03/19 06:51:29;;;;;;;44.22;18.52;;;;;;;;;;5019668;28;20041;-80
2023/03/19 06:54:15;;;;;;;29.33;17.13;;;;;;;;;;5013640;28;20045;-80
2023/03/19 06:57:01;;;;;;;48.17;20.17;;;;;;;;;;5019199;28;20046;-79
2023/03/19 06:59:46;;;;;;;40.40;19.55;;;;;;;;;;5019165;28;20486;-82
2023/03/19 07:02:32;;;;;;;25.63;14.20;;;;;;;;;;5019306;28;20038;-79
2023/03/19 07:05:16;;;;;;;18.08;9.80;;;;;;;;;;5013898;28;20046;-79
2023/03/19 07:08:02;;;;;;;12.45;5.75;;;;;;;;;;5013827;28;20054;-79
2023/03/19 07:10:48;;;;;;;13.18;6.30;;;;;;;;;;5008449;28;20042;-78
2023/03/19 07:13:33;;;;;;;22.65;11.48;;;;;;;;;;5031659;28;20049;-80
2023/03/19 07:16:19;;;;;;;21.58;11.88;;;;;;;;;;5020041;28;20061;-79
2023/03/19 07:19:04;;;;;;;20.13;11.32;;;;;;;;;;5013442;28;20046;-80
2023/03/19 07:21:50;;;;;;;43.95;21.35;;;;;;;;;;5007221;28;20045;-79
2023/03/19 07:24:35;;;;;;;26.02;13.95;;;;;;;;;;5009499;28;20046;-80
2023/03/19 07:27:21;;;;;;;20.80;10.55;;;;;;;;;;5017303;28;20037;-80
2023/03/19 07:30:08;;;;;;;32.10;15.23;;;;;;;;;;5009213;28;20411;-80
2023/03/19 07:32:54;;;;;;;21.88;13.10;;;;;;;;;;5017747;28;20046;-81
2023/03/19 07:35:39;;;;;;;24.00;13.85;;;;;;;;;;5017206;28;20046;-81
2023/03/19 07:38:24;;;;;;;31.33;15.73;;;;;;;;;;5028402;28;20049;-80
2023/03/19 07:41:09;;;;;;;38.38;21.38;;;;;;;;;;5017037;28;20054;-81
2023/03/19 07:43:54;;;;;;;27.63;16.00;;;;;;;;;;5017341;28;20486;-80
2023/03/19 07:46:41;;;;;;;29.55;16.50;;;;;;;;;;5017152;28;20038;-81
2023/03/19 07:49:26;;;;;;;28.38;15.77;;;;;;;;;;5017182;28;20050;-80
2023/03/19 07:52:13;;;;;;;27.38;16.00;;;;;;;;;;5016860;28;20042;-79
2023/03/19 07:54:58;;;;;;;70.90;30.80;;;;;;;;;;5016906;28;20045;-80
2023/03/19 07:57:44;;;;;;;27.25;15.50;;;;;;;;;;5016603;28;20049;-79
2023/03/19 08:00:29;;;;;;;23.05;11.60;;;;;;;;;;5016995;28;20046;-80
2023/03/19 08:03:15;;;;;;;17.52;11.10;;;;;;;;;;5009442;28;20050;-80
2023/03/19 08:06:01;;;;;;;56.00;28.92;;;;;;;;;;5036593;28;20366;-81
2023/03/19 08:08:46;;;;;;;30.50;16.48;;;;;;;;;;5026818;28;20045;-81
2023/03/19 08:11:31;;;;;;;18.40;11.32;;;;;;;;;;5036441;28;20053;-81
2023/03/19 08:14:21;;;;;;;19.35;12.18;;;;;;;;;;5031665;28;20045;-81
2023/03/19 08:17:05;;;;;;;19.63;9.98;;;;;;;;;;5018476;28;20046;-79
2023/03/19 08:19:50;;;;;;;24.58;14.30;;;;;;;;;;5024106;28;20042;-79
2023/03/19 08:22:37;;;;;;;16.15;9.70;;;;;;;;;;5025101;28;20398;-79
2023/03/19 08:25:23;;;;;;;17.52;9.43;;;;;;;;;;5019706;28;20049;-81
2023/03/19 08:28:09;;;;;;;19.30;9.52;;;;;;;;;;5027167;28;20049;-81
2023/03/19 08:30:55;;;;;;;15.20;9.38;;;;;;;;;;5035840;28;20041;-79
2023/03/19 08:33:40;;;;;;;15.45;9.60;;;;;;;;;;5033304;28;20486;-80
2023/03/19 08:36:26;;;;;;;15.35;9.15;;;;;;;;;;5015817;28;20049;-81
2023/03/19 08:39:11;;;;;;;16.15;9.65;;;;;;;;;;5001224;28;20490;-82
2023/03/19 08:41:56;;;;;;;19.67;10.00;;;;;;;;;;5015838;28;20041;-80
2023/03/19 08:44:41;;;;;;;16.55;8.70;;;;;;;;;;5015836;28;20038;-81
2023/03/19 08:47:27;;;;;;;19.98;9.35;;;;;;;;;;5015943;28;20042;-80
2023/03/19 08:50:18;;;;;;;14.63;8.93;;;;;;;;;;5015604;28;20054;-81
2023/03/19 08:53:03;;;;;;;14.98;8.52;;;;;;;;;;5015909;28;20049;-80
2023/03/19 08:55:56;;;;;;;15.38;9.63;;;;;;;;;;5015681;28;20406;-81
2023/03/19 08:58:42;;;;;;;19.25;11.15;;;;;;;;;;5015128;28;20045;-81
2023/03/19 09:01:27;;;;;;;25.52;13.73;;;;;;;;;;5015346;28;20046;-81
2023/03/19 09:04:12;;;;;;;17.10;7.68;;;;;;;;;;5021413;28;20049;-81
2023/03/19 09:07:03;;;;;;;15.05;8.40;;;;;;;;;;5041587;28;20049;-81
2023/03/19 09:09:49;;;;;;;15.18;8.85;;;;;;;;;;5023498;28;20053;-81
2023/03/19 09:12:34;;;;;;;11.18;7.40;;;;;;;;;;5014743;28;20054;-81
2023/03/19 09:15:20;;;;;;;15.55;8.50;;;;;;;;;;5007353;28;20495;-80
2023/03/19 09:18:11;;;;;;;18.30;8.90;;;;;;;;;;5015976;28;20046;-82
2023/03/19 09:21:02;;;;;;;13.43;8.13;;;;;;;;;;5018835;28;20054;-81
2023/03/19 09:23:47;;;;;;;17.13;9.55;;;;;;;;;;5016004;28;20046;-81
2023/03/19 09:26:32;;;;;;;17.52;8.60;;;;;;;;;;5014691;28;20395;-81
2023/03/19 09:29:18;;;;;;;19.13;10.82;;;;;;;;;;5015028;28;20494;-80
2023/03/19 09:32:04;;;;;;;17.67;9.23;;;;;;;;;;5024462;28;20061;-80
2023/03/19 09:34:51;;;;;;;15.95;8.38;;;;;;;;;;5034971;28;20049;-80
2023/03/19 09:37:36;;;;;;;14.00;8.65;;;;;;;;;;5033669;28;20041;-80
2023/03/19 09:40:26;;;;;;;15.77;9.02;;;;;;;;;;5020980;28;20050;-81
2023/03/19 09:43:38;;;;;;;15.57;8.68;;;;;;;;;;5020432;28;20049;-81
2023/03/19 09:46:32;;;;;;;10.38;5.18;;;;;;;;;;5034537;28;20490;-80
2023/03/19 09:49:28;;;;;;;11.73;7.20;;;;;;;;;;5034795;28;20057;-81
2023/03/19 09:52:32;;;;;;;14.88;7.50;;;;;;;;;;5014930;28;20042;-80
2023/03/19 09:55:18;;;;;;;15.10;7.72;;;;;;;;;;4999176;28;20046;-81
2023/03/19 09:58:12;;;;;;;13.38;7.88;;;;;;;;;;5012900;28;20046;-80
2023/03/19 10:01:00;;;;;;;15.18;8.30;;;;;;;;;;5014507;28;20041;-80
2023/03/19 10:04:29;;;;;;;13.55;7.05;;;;;;;;;;5020293;28;20045;-80
2023/03/19 10:07:17;;;;;;;14.05;7.47;;;;;;;;;;5033985;28;20053;-81
2023/03/19 10:10:30;;;;;;;12.63;6.88;;;;;;;;;;5031597;28;20053;-81
2023/03/19 10:13:42;;;;;;;12.68;7.10;;;;;;;;;;5033332;28;20045;-81
2023/03/19 10:16:28;;;;;;;14.18;8.00;;;;;;;;;;5025930;28;20045;-81
2023/03/19 10:19:21;;;;;;;11.95;6.85;;;;;;;;;;5033957;28;20053;-79
2023/03/19 10:22:15;;;;;;;14.27;5.78;;;;;;;;;;5033987;28;20041;-79
2023/03/19 10:25:02;;;;;;;12.85;5.60;;;;;;;;;;5034705;28;20053;-80
2023/03/19 10:27:55;;;;;;;9.90;4.68;;;;;;;;;;5034036;28;20045;-80
2023/03/19 10:30:43;;;;;;;8.77;5.05;;;;;;;;;;5025681;28;20041;-80
2023/03/19 10:33:43;;;;;;;8.70;4.80;;;;;;;;;;5033982;28;20053;-78
2023/03/19 10:36:35;;;;;;;10.15;5.50;;;;;;;;;;5033731;28;20050;-80
2023/03/19 10:39:20;;;;;;;10.10;5.63;;;;;;;;;;5025810;28;20041;-79
2023/03/19 10:42:48;;;;;;;13.00;4.82;;;;;;;;;;5013244;28;20054;-80
2023/03/19 10:45:37;;;;;;;15.07;5.10;;;;;;;;;;5027505;28;20045;-79
2023/03/19 10:48:25;;;;;;;9.88;4.95;;;;;;;;;;5025539;28;20064;-79
2023/03/19 10:51:23;;;;;;;11.20;4.93;;;;;;;;;;5033408;28;20405;-80
2023/03/19 10:54:23;;;;;;;11.70;4.88;;;;;;;;;;5033834;28;20045;-79
2023/03/19 10:57:27;;;;;;;12.80;5.03;;;;;;;;;;5022389;28;20042;-81
2023/03/19 11:00:18;;;;;;;7.63;4.70;;;;;;;;;;5019222;28;20042;-80
2023/03/19 11:03:30;;;;;;;13.18;7.63;;;;;;;;;;5014066;28;20045;-81
2023/03/19 11:06:31;;;;;;;11.68;5.63;;;;;;;;;;5026150;28;20046;-80
2023/03/19 11:09:23;;;;;;;9.05;4.75;;;;;;;;;;5033383;28;20045;-81
2023/03/19 11:12:21;;;;;;;10.45;5.18;;;;;;;;;;5024488;28;20045;-81
2023/03/19 11:15:20;;;;;;;8.93;5.63;;;;;;;;;;5018386;28;20045;-81
2023/03/19 11:18:19;;;;;;;8.68;4.93;;;;;;;;;;5033187;28;20049;-80
2023/03/19 11:21:19;;;;;;;8.70;5.05;;;;;;;;;;5033450;28;20407;-79
2023/03/19 11:24:11;;;;;;;14.90;4.65;;;;;;;;;;5020254;28;20045;-79
2023/03/19 11:27:04;;;;;;;13.52;4.70;;;;;;;;;;5023958;28;20037;-79
2023/03/19 11:29:49;;;;;;;11.80;4.55;;;;;;;;;;5033267;28;20048;-79
2023/03/19 11:32:55;;;;;;;8.30;4.60;;;;;;;;;;5010008;28;20053;-79
2023/03/19 11:35:40;;;;;;;;;;;;;;;;;;5029139;28;20049;-81
2023/03/19 11:38:48;;;;;;;8.23;4.60;;;;;;;;;;5004876;28;19917;-79
2023/03/19 11:42:04;;;;;;;10.90;4.38;;;;;;;;;;5013431;28;20050;-79
2023/03/19 11:45:18;;;;;;;8.38;4.40;;;;;;;;;;5005253;28;20406;-77
2023/03/19 11:48:42;;;;;;;10.98;5.15;;;;;;;;;;5013332;28;20038;-78
2023/03/19 11:51:40;;;;;;;8.63;5.18;;;;;;;;;;5012865;28;20058;-78
2023/03/19 11:54:51;;;;;;;12.45;4.90;;;;;;;;;;5013408;28;20053;-79
2023/03/19 11:57:47;;;;;;;12.38;6.00;;;;;;;;;;5013071;28;20042;-78
2023/03/19 12:00:46;;;;;;;9.23;4.78;;;;;;;;;;5012597;28;20041;-78
2023/03/19 12:04:14;;;;;;;9.23;5.03;;;;;;;;;;5012889;28;20054;-78
2023/03/19 12:06:59;;;;;;;14.68;7.13;;;;;;;;;;5012907;28;20046;-77
2023/03/19 12:09:51;;;;;;;21.88;13.82;;;;;;;;;;5016772;28;20046;-78
2023/03/19 12:12:54;;;;;;;15.38;7.47;;;;;;;;;;5017065;28;20387;-77
2023/03/19 12:15:51;;;;;;;33.70;19.98;;;;;;;;;;5001646;28;20054;-80
2023/03/19 12:19:00;;;;;;;10.55;4.50;;;;;;;;;;4995006;28;20053;-78
2023/03/19 12:21:45;;;;;;;11.80;5.90;;;;;;;;;;5015951;28;20041;-78
2023/03/19 12:24:52;;;;;;;10.07;6.10;;;;;;;;;;5016476;28;20041;-79
2023/03/19 12:27:40;;;;;;;13.73;5.90;;;;;;;;;;5015933;28;20042;-79
2023/03/19 12:30:32;;;;;;;9.85;4.32;;;;;;;;;;5016255;28;20057;-79
2023/03/19 12:33:36;;;;;;;10.05;4.70;;;;;;;;;;5026612;28;20042;-79
2023/03/19 12:36:27;;;;;;;12.85;5.05;;;;;;;;;;5022579;28;20491;-78
2023/03/19 12:39:19;;;;;;;11.50;4.85;;;;;;;;;;5025610;28;20517;-78
2023/03/19 12:42:12;;;;;;;7.82;4.68;;;;;;;;;;5015722;28;20391;-79
2023/03/19 12:44:59;;;;;;;10.68;4.45;;;;;;;;;;5025968;28;20046;-80
2023/03/19 12:47:47;;;;;;;8.10;4.18;;;;;;;;;;5032960;28;20037;-77
2023/03/19 12:50:36;;;;;;;8.52;5.50;;;;;;;;;;5014373;28;20050;-76
2023/03/19 12:53:53;;;;;;;10.18;4.70;;;;;;;;;;5020706;28;20030;-78
2023/03/19 12:57:02;;;;;;;9.55;4.72;;;;;;;;;;5015676;28;20475;-79
2023/03/19 13:00:03;;;;;;;9.93;4.35;;;;;;;;;;5015704;28;20041;-76
2023/03/19 13:03:21;;;;;;;8.95;4.63;;;;;;;;;;5015310;28;20046;-77
2023/03/19 13:06:18;;;;;;;9.30;5.25;;;;;;;;;;5029921;28;20053;-78
2023/03/19 13:09:13;;;;;;;6.47;4.00;;;;;;;;;;5034879;28;20058;-79
2023/03/19 13:12:10;;;;;;;8.25;3.83;;;;;;;;;;5035219;28;20041;-77
2023/03/19 13:15:00;;;;;;;7.90;4.60;;;;;;;;;;5034284;28;20045;-78
2023/03/19 13:17:54;;;;;;;7.50;4.07;;;;;;;;;;5034829;28;20402;-78
2023/03/19 13:21:14;;;;;;;14.63;6.78;;;;;;;;;;5046748;28;20041;-79
2023/03/19 13:24:29;;;;;;;11.18;6.60;;;;;;;;;;5040400;28;20045;-79
2023/03/19 13:27:21;;;;;;;7.38;3.47;;;;;;;;;;5034990;28;20045;-78
2023/03/19 13:30:09;;;;;;;11.20;5.60;;;;;;;;;;5034504;28;20060;-77
2023/03/19 13:33:03;;;;;;;7.85;4.90;;;;;;;;;;5035034;28;20057;-78
2023/03/19 13:35:49;;;;;;;6.60;4.30;;;;;;;;;;5035185;28;20057;-78
2023/03/19 13:38:46;;;;;;;14.50;3.92;;;;;;;;;;5026211;28;20057;-76
2023/03/19 13:41:35;;;;;;;8.32;3.78;;;;;;;;;;5034996;28;20037;-78
2023/03/19 13:44:32;;;;;;;11.65;4.07;;;;;;;;;;5034415;28;20037;-77
2023/03/19 13:47:32;;;;;;;7.00;4.00;;;;;;;;;;5034519;28;20121;-78
2023/03/19 13:50:17;;;;;;;7.25;3.72;;;;;;;;;;5034607;28;20481;-79
2023/03/19 13:53:31;;;;;;;7.53;3.80;;;;;;;;;;5050986;28;20053;-80
2023/03/19 13:56:16;;;;;;;7.65;4.63;;;;;;;;;;5057212;28;20045;-78
2023/03/19 13:59:14;;;;;;;8.93;3.78;;;;;;;;;;5034080;28;20041;-83
2023/03/19 14:02:23;;;;;;;6.72;3.63;;;;;;;;;;5044569;28;20049;-79
2023/03/19 14:05:18;;;;;;;8.90;4.22;;;;;;;;;;5024482;28;20426;-80
2023/03/19 14:08:17;;;;;;;10.32;4.90;;;;;;;;;;5023288;28;20489;-78
2023/03/19 14:11:04;;;;;;;10.00;4.72;;;;;;;;;;5013337;28;20042;-80
2023/03/19 14:13:51;;;;;;;8.30;4.35;;;;;;;;;;5012966;28;20041;-78
2023/03/19 14:16:42;;;;;;;6.82;3.50;;;;;;;;;;5023696;28;20401;-79
2023/03/19 14:19:29;;;;;;;12.77;6.32;;;;;;;;;;5028138;28;20053;-81
2023/03/19 14:22:15;;;;;;;56.38;39.78;;;;;;;;;;5023154;28;20053;-79
2023/03/19 14:25:18;;;;;;;14.15;8.43;;;;;;;;;;5025776;28;20042;-79
2023/03/19 14:28:09;;;;;;;168.65;114.85;;;;;;;;;;5022234;28;20042;-80
2023/03/19 14:30:55;;;;;;;150.90;102.88;;;;;;;;;;5026380;28;20045;-79
2023/03/19 14:33:51;;;;;;;92.15;75.00;;;;;;;;;;5022645;28;20054;-79
2023/03/19 14:36:43;;;;;;;22.23;17.38;;;;;;;;;;5033896;28;20398;-79
2023/03/19 14:39:31;;;;;;;14.30;10.18;;;;;;;;;;5025179;28;20045;-79
2023/03/19 14:42:38;;;;;;;10.07;7.03;;;;;;;;;;5022100;28;20054;-80
2023/03/19 14:45:53;;;;;;;13.50;7.68;;;;;;;;;;5020382;28;20041;-79
2023/03/19 14:48:45;;;;;;;9.20;5.40;;;;;;;;;;5023818;28;20045;-80
2023/03/19 14:52:01;;;;;;;9.32;5.65;;;;;;;;;;5024011;28;20045;-80
2023/03/19 14:54:55;;;;;;;10.70;5.40;;;;;;;;;;5021710;28;20478;-79
2023/03/19 14:57:40;;;;;;;9.80;5.68;;;;;;;;;;5015738;28;20041;-81
2023/03/19 15:00:25;;;;;;;10.90;4.97;;;;;;;;;;5026815;28;20410;-79
2023/03/19 15:03:19;;;;;;;8.93;5.43;;;;;;;;;;5018223;28;20050;-78
2023/03/19 15:06:08;;;;;;;45.43;32.37;;;;;;;;;;5033842;28;20053;-79
2023/03/19 15:08:55;;;;;;;45.25;29.85;;;;;;;;;;5018673;28;20486;-80
2023/03/19 15:11:58;;;;;;;40.40;26.92;;;;;;;;;;5033581;28;20049;-79
2023/03/19 15:15:08;;;;;;;37.03;24.65;;;;;;;;;;5025298;28;20057;-78
2023/03/19 15:18:07;;;;;;;19.70;14.18;;;;;;;;;;5025538;28;20394;-79
2023/03/19 15:20:55;;;;;;;19.23;12.73;;;;;;;;;;5025275;28;20050;-81
2023/03/19 15:23:45;;;;;;;20.77;13.27;;;;;;;;;;5033046;28;20478;-80
2023/03/19 15:26:35;;;;;;;14.20;9.20;;;;;;;;;;5033315;28;20045;-77
2023/03/19 15:29:31;;;;;;;22.80;15.77;;;;;;;;;;5032187;28;20054;-78
2023/03/19 15:32:38;;;;;;;22.33;16.60;;;;;;;;;;5031915;28;20053;-78
2023/03/19 15:35:27;;;;;;;16.17;11.60;;;;;;;;;;5025246;28;20045;-81
2023/03/19 15:38:15;;;;;;;29.83;20.67;;;;;;;;;;5010897;28;20046;-78
2023/03/19 15:41:03;;;;;;;32.67;22.88;;;;;;;;;;5019006;28;20057;-76
2023/03/19 15:43:49;;;;;;;24.38;14.75;;;;;;;;;;5016043;28;20510;-77
2023/03/19 15:46:39;;;;;;;20.90;13.90;;;;;;;;;;5024687;28;20045;-78
2023/03/19 15:49:41;;;;;;;17.73;9.85;;;;;;;;;;5028182;28;20049;-78
2023/03/19 15:52:30;;;;;;;19.85;12.10;;;;;;;;;;5023486;28;20045;-78
2023/03/19 15:55:15;;;;;;;24.60;15.57;;;;;;;;;;5017669;28;20046;-80
2023/03/19 15:58:21;;;;;;;19.92;12.85;;;;;;;;;;5022062;28;20394;-80
2023/03/19 16:01:09;;;;;;;24.00;15.73;;;;;;;;;;5030044;28;20049;-80
2023/03/19 16:03:56;;;;;;;27.65;16.15;;;;;;;;;;5030318;28;20054;-80
2023/03/19 16:06:41;;;;;;;29.42;19.10;;;;;;;;;;5014820;28;20034;-80
2023/03/19 16:09:30;;;;;;;59.13;37.15;;;;;;;;;;5019190;28;20045;-80
2023/03/19 16:12:37;;;;;;;49.03;30.42;;;;;;;;;;5029495;28;20046;-80
2023/03/19 16:15:39;;;;;;;36.53;23.83;;;;;;;;;;5019199;28;20038;-80
2023/03/19 16:18:26;;;;;;;31.55;17.70;;;;;;;;;;5016652;28;20038;-80
2023/03/19 16:21:16;;;;;;;45.50;22.88;;;;;;;;;;5022139;28;20049;-81
2023/03/19 16:24:22;;;;;;;42.33;20.48;;;;;;;;;;5036097;28;20041;-80
2023/03/19 16:27:31;;;;;;;121.22;49.72;;;;;;;;;;5040687;28;20049;-80
2023/03/19 16:30:22;;;;;;;118.68;47.35;;;;;;;;;;5039960;28;20049;-80
2023/03/19 16:33:12;;;;;;;74.32;33.22;;;;;;;;;;5022408;28;20061;-80
2023/03/19 16:35:58;;;;;;;59.67;29.10;;;;;;;;;;5029418;28;20045;-80
2023/03/19 16:38:53;;;;;;;56.95;26.65;;;;;;;;;;5022354;28;20049;-81
2023/03/19 16:41:40;;;;;;;44.25;23.40;;;;;;;;;;5018546;28;20034;-81
2023/03/19 16:44:27;;;;;;;77.75;39.72;;;;;;;;;;5016476;28;20038;-80
2023/03/19 16:47:14;;;;;;;84.82;41.28;;;;;;;;;;5026086;28;20049;-80